Kinston Regional Jetport At Stallings Field Kinston US
ICAO: KISO
IATA: ISO
Category: Medium
Scheduled Services: No

Elevation: 93 ft
TransAlt. 18000 ft.

Airport Communications:
SEYMOUR JOHN APP/DEP:127.3
AWOS 3:132.75
CTAF:120.6
GND:121.9
RALEIGH RDO:109.6
TWR:120.6
UNICOM:122.95

KISO Zoom In..

If you have problems with the map follow the link
https://www.worldairports.se/pages/airport.php?
ICAO=KISO

Runways:

(A) RW 05 length 11500 ft width 150 ft
ILS 111.30 / hdg 50

(B) RW 23 length 11500 ft width 150 ft
---- / hdg 230

Location; KISO
Day. 13 / Time. 20.56 Zulu
* Altimeter: 29.96
* Temperature: 09° c. 48.2°f.
* Wind from: 030° Speed 05 kn.
Dewpoint: 08° c.
Visibility: 2 m.
Clouds: Overcast 400 ft.
Conditions: Mist.

KISO 132056Z 03005KT 2 1/2SM BR OVC004 09/08 A2996


Wind From 030°
Speed 05 kn.

 
 
jpsmedia worldairports.se 2019   terms of use